createdAt,value
2019-05-21T00:01:23.305Z,10.93
2019-05-21T00:04:28.400Z,11.67
2019-05-21T00:07:27.957Z,11.30
2019-05-21T00:10:30.282Z,11.23
2019-05-21T00:13:32.506Z,10.37
2019-05-21T00:16:34.767Z,10.77
2019-05-21T00:19:37.058Z,11.57
2019-05-21T00:22:39.353Z,11.80
2019-05-21T00:25:41.631Z,13.30
2019-05-21T00:28:55.364Z,13.13
2019-05-21T00:32:09.205Z,13.60
2019-05-21T00:35:23.032Z,14.87
2019-05-21T00:38:36.807Z,15.60
2019-05-21T00:41:50.501Z,15.93
2019-05-21T00:44:52.728Z,15.60
2019-05-21T00:47:55.018Z,17.17
2019-05-21T00:50:57.349Z,15.73
2019-05-21T00:53:59.591Z,16.90
2019-05-21T00:57:01.882Z,16.60
2019-05-21T01:00:04.763Z,13.83
2019-05-21T01:03:06.964Z,13.53
2019-05-21T01:06:09.175Z,12.30
2019-05-21T01:09:11.548Z,12.43
2019-05-21T01:12:13.812Z,12.87
2019-05-21T01:15:16.102Z,11.30
2019-05-21T01:18:18.378Z,10.03
2019-05-21T01:21:20.652Z,8.83
2019-05-21T01:24:22.871Z,7.30
2019-05-21T01:27:25.080Z,7.30
2019-05-21T01:30:27.379Z,6.73
2019-05-21T01:33:29.639Z,6.50
2019-05-21T01:36:31.904Z,5.90
2019-05-21T01:39:34.114Z,6.23
2019-05-21T01:42:36.380Z,6.60
2019-05-21T01:45:38.623Z,5.57
2019-05-21T01:48:40.946Z,6.40
2019-05-21T01:51:43.219Z,5.80
2019-05-21T01:54:45.501Z,4.63
2019-05-21T01:57:47.707Z,4.83
2019-05-21T02:00:50.065Z,4.10
2019-05-21T02:03:52.247Z,3.80
2019-05-21T02:06:54.523Z,3.07
2019-05-21T02:09:57.661Z,2.70
2019-05-21T02:14:24.499Z,2.30
2019-05-21T02:17:26.767Z,2.10
2019-05-21T02:20:29.035Z,1.70
2019-05-21T02:23:31.337Z,1.80
2019-05-21T02:26:33.605Z,1.93
2019-05-21T02:29:35.823Z,2.10
2019-05-21T02:32:38.104Z,2.73
2019-05-21T02:35:53.780Z,2.20
2019-05-21T02:38:42.743Z,2.40
2019-05-21T02:41:44.974Z,2.50
2019-05-21T02:44:47.267Z,2.47
2019-05-21T02:47:49.535Z,2.57
2019-05-21T02:50:51.793Z,2.50
2019-05-21T02:53:54.074Z,2.60
2019-05-21T02:56:56.397Z,2.57
2019-05-21T02:59:58.713Z,2.80
2019-05-21T03:03:01.081Z,3.00
2019-05-21T03:06:13.735Z,3.23
2019-05-21T03:09:05.968Z,2.90
2019-05-21T03:12:08.266Z,2.70
2019-05-21T03:15:10.512Z,2.40
2019-05-21T03:18:12.764Z,2.80
2019-05-21T03:21:15.016Z,2.90
2019-05-21T03:24:17.236Z,2.80
2019-05-21T03:27:19.489Z,3.50
2019-05-21T03:30:21.770Z,2.73
2019-05-21T03:33:24.012Z,2.40
2019-05-21T03:36:33.362Z,2.30
2019-05-21T03:39:28.891Z,2.63
2019-05-21T03:42:31.111Z,2.87
2019-05-21T03:45:33.348Z,2.63
2019-05-21T03:48:35.668Z,2.77
2019-05-21T03:51:37.935Z,3.07
2019-05-21T03:54:40.350Z,2.60
2019-05-21T03:57:42.865Z,2.93
2019-05-21T04:00:45.235Z,3.23
2019-05-21T04:03:47.605Z,3.20
2019-05-21T04:06:52.262Z,3.20
2019-05-21T04:09:52.214Z,3.10
2019-05-21T04:13:00.187Z,3.57
2019-05-21T04:16:06.788Z,3.67
2019-05-21T04:19:12.498Z,3.27
2019-05-21T04:22:15.433Z,3.43
2019-05-21T04:25:17.713Z,3.83
2019-05-21T04:28:19.934Z,3.80
2019-05-21T04:31:22.168Z,3.83
2019-05-21T04:34:24.433Z,3.57
2019-05-21T04:37:26.722Z,3.27
2019-05-21T04:40:29.000Z,3.43
2019-05-21T04:43:31.321Z,3.50
2019-05-21T04:46:33.667Z,3.60
2019-05-21T04:49:35.926Z,3.70
2019-05-21T04:52:38.231Z,4.17
2019-05-21T04:55:40.444Z,3.10
2019-05-21T04:58:42.674Z,3.87
2019-05-21T05:01:44.997Z,3.83
2019-05-21T05:04:47.286Z,3.63
2019-05-21T05:07:49.518Z,4.40
2019-05-21T05:10:51.755Z,4.33
2019-05-21T05:13:54.019Z,4.17
2019-05-21T05:16:56.251Z,3.87
2019-05-21T05:19:58.492Z,4.10
2019-05-21T05:23:00.763Z,4.00
2019-05-21T05:26:03.102Z,3.50
2019-05-21T05:29:05.322Z,3.87
2019-05-21T05:32:07.551Z,3.77
2019-05-21T05:35:09.856Z,3.40
2019-05-21T05:38:12.140Z,3.60
2019-05-21T05:41:14.427Z,4.20
2019-05-21T05:44:16.710Z,4.40
2019-05-21T05:47:18.962Z,3.67
2019-05-21T05:50:22.600Z,4.30
2019-05-21T05:53:24.910Z,4.23
2019-05-21T05:56:27.541Z,4.70
2019-05-21T05:59:29.829Z,4.20
2019-05-21T06:02:32.048Z,4.90
2019-05-21T06:05:34.312Z,4.40
2019-05-21T06:08:36.536Z,4.20
2019-05-21T06:11:38.739Z,4.03
2019-05-21T06:14:41.012Z,3.90
2019-05-21T06:17:43.309Z,3.80
2019-05-21T06:20:45.672Z,3.83
2019-05-21T06:23:47.920Z,3.63
2019-05-21T06:26:50.208Z,3.63
2019-05-21T06:29:52.505Z,3.33
2019-05-21T06:32:54.799Z,2.93
2019-05-21T06:35:57.091Z,2.93
2019-05-21T06:38:59.370Z,2.60
2019-05-21T06:42:01.628Z,2.70
2019-05-21T06:45:04.485Z,2.63
2019-05-21T06:48:06.778Z,2.40
2019-05-21T06:51:08.988Z,2.37
2019-05-21T06:54:11.292Z,2.20
2019-05-21T06:57:13.546Z,1.90
2019-05-21T07:00:15.885Z,1.73
2019-05-21T07:03:18.124Z,2.07
2019-05-21T07:06:20.412Z,1.50
2019-05-21T07:09:22.621Z,1.43
2019-05-21T07:12:24.872Z,1.30
2019-05-21T07:15:27.099Z,1.50
2019-05-21T07:18:29.350Z,1.23
2019-05-21T07:21:31.623Z,1.30
2019-05-21T07:24:33.981Z,1.30
2019-05-21T07:27:36.250Z,1.30
2019-05-21T07:33:55.656Z,1.10
2019-05-21T07:36:57.930Z,1.20
2019-05-21T07:40:00.308Z,1.27
2019-05-21T07:43:02.663Z,1.20
2019-05-21T07:46:04.960Z,1.50
2019-05-21T07:49:07.207Z,1.20
2019-05-21T07:52:09.503Z,1.17
2019-05-21T07:55:11.847Z,1.13
2019-05-21T07:58:14.125Z,0.83
2019-05-21T08:01:16.406Z,1.17
2019-05-21T08:04:18.673Z,1.17
2019-05-21T08:07:20.928Z,1.20
2019-05-21T08:10:23.277Z,1.23
2019-05-21T08:13:25.548Z,1.10
2019-05-21T08:16:27.813Z,1.00
2019-05-21T08:19:31.276Z,1.30
2019-05-21T08:22:32.404Z,0.93
2019-05-21T08:25:34.735Z,1.10
2019-05-21T08:28:37.031Z,1.00
2019-05-21T08:31:39.343Z,1.10
2019-05-21T08:34:41.619Z,1.20
2019-05-21T08:37:43.946Z,0.97
2019-05-21T08:40:46.239Z,1.00
2019-05-21T08:43:48.580Z,1.00
2019-05-21T08:46:50.872Z,1.20
2019-05-21T08:49:53.171Z,1.10
2019-05-21T08:52:55.426Z,1.30
2019-05-21T08:55:57.698Z,1.03
2019-05-21T08:58:59.943Z,1.00
2019-05-21T09:02:02.267Z,1.20
2019-05-21T09:05:05.073Z,1.27
2019-05-21T09:08:07.456Z,1.00
2019-05-21T09:11:09.617Z,1.00
2019-05-21T09:14:11.880Z,1.00
2019-05-21T09:17:14.234Z,1.10
2019-05-21T09:20:16.507Z,1.20
2019-05-21T09:23:18.788Z,1.27
2019-05-21T09:26:21.079Z,1.30
2019-05-21T09:29:23.343Z,1.20
2019-05-21T09:32:25.629Z,1.33
2019-05-21T09:35:27.892Z,1.03
2019-05-21T09:38:30.166Z,1.43
2019-05-21T09:41:32.456Z,1.20
2019-05-21T09:44:34.705Z,1.10
2019-05-21T09:47:37.006Z,1.30
2019-05-21T09:50:39.276Z,1.60
2019-05-21T09:53:41.525Z,1.80
2019-05-21T09:56:43.773Z,1.60
2019-05-21T09:59:56.145Z,1.40
2019-05-21T10:02:58.383Z,1.40
2019-05-21T10:06:00.647Z,1.23
2019-05-21T10:09:04.815Z,1.57
2019-05-21T10:12:07.164Z,1.60
2019-05-21T10:15:09.497Z,1.60
2019-05-21T10:18:11.777Z,1.77
2019-05-21T10:24:17.626Z,1.53
2019-05-21T10:27:20.088Z,1.63
2019-05-21T10:30:22.636Z,2.20
2019-05-21T10:33:25.146Z,1.70
2019-05-21T10:36:27.505Z,1.60
2019-05-21T10:39:30.021Z,1.93
2019-05-21T10:42:32.417Z,1.80
2019-05-21T10:45:34.716Z,2.10
2019-05-21T10:48:36.986Z,1.50
2019-05-21T10:51:39.267Z,1.30
2019-05-21T10:54:41.519Z,1.73
2019-05-21T10:57:43.804Z,1.87
2019-05-21T11:00:46.224Z,1.70
2019-05-21T11:04:55.000Z,1.50
2019-05-21T11:08:20.753Z,1.53
2019-05-21T11:10:59.606Z,1.53
2019-05-21T11:14:01.947Z,1.60
2019-05-21T11:17:04.287Z,1.73
2019-05-21T11:20:06.566Z,1.50
2019-05-21T11:23:08.883Z,1.50
2019-05-21T11:26:11.214Z,1.30
2019-05-21T11:29:13.468Z,1.53
2019-05-21T11:32:15.762Z,1.43
2019-05-21T11:35:18.263Z,1.47
2019-05-21T11:38:20.476Z,1.70
2019-05-21T11:41:22.776Z,1.60
2019-05-21T11:44:25.036Z,1.47
2019-05-21T11:47:27.264Z,1.80
2019-05-21T11:50:29.516Z,2.23
2019-05-21T11:53:32.171Z,1.80
2019-05-21T11:56:36.178Z,2.33
2019-05-21T11:59:36.329Z,1.40
2019-05-21T12:02:38.723Z,1.80
2019-05-21T12:05:40.868Z,1.70
2019-05-21T12:08:56.183Z,1.90
2019-05-21T12:11:50.007Z,1.70
2019-05-21T12:14:52.296Z,1.77
2019-05-21T12:17:54.589Z,1.70
2019-05-21T12:20:56.847Z,1.83
2019-05-21T12:23:59.197Z,1.80
2019-05-21T12:27:01.473Z,1.57
2019-05-21T12:30:04.630Z,1.40
2019-05-21T12:33:06.920Z,1.50
2019-05-21T12:36:09.295Z,1.40
2019-05-21T12:39:14.480Z,1.60
2019-05-21T12:42:13.904Z,1.70
2019-05-21T12:45:16.215Z,1.60
2019-05-21T12:48:18.458Z,1.73
2019-05-21T12:51:20.793Z,1.77
2019-05-21T12:54:23.075Z,1.73
2019-05-21T12:57:25.407Z,1.90
2019-05-21T13:00:28.847Z,1.80
2019-05-21T13:03:31.142Z,1.80
2019-05-21T13:06:33.392Z,1.63
2019-05-21T13:09:35.666Z,1.73
2019-05-21T13:12:37.978Z,1.40
2019-05-21T13:15:40.223Z,1.93
2019-05-21T13:18:42.500Z,2.03
2019-05-21T13:21:44.768Z,1.80
2019-05-21T13:24:47.079Z,1.70
2019-05-21T13:27:49.353Z,2.03
2019-05-21T13:30:51.673Z,1.97
2019-05-21T13:33:53.959Z,2.17
2019-05-21T13:36:56.356Z,1.80
2019-05-21T13:39:58.737Z,2.00
2019-05-21T13:43:01.024Z,2.07
2019-05-21T13:46:03.495Z,1.73
2019-05-21T13:49:05.797Z,2.00
2019-05-21T13:52:08.088Z,2.03
2019-05-21T13:55:10.427Z,2.20
2019-05-21T13:58:12.698Z,2.30
2019-05-21T14:01:16.102Z,2.23
2019-05-21T14:04:17.302Z,1.90
2019-05-21T14:07:19.664Z,1.80
2019-05-21T14:10:22.160Z,2.40
2019-05-21T14:13:24.255Z,2.33
2019-05-21T14:16:26.523Z,1.87
2019-05-21T14:19:28.822Z,2.30
2019-05-21T14:22:31.086Z,2.23
2019-05-21T14:25:33.402Z,2.23
2019-05-21T14:28:35.664Z,2.10
2019-05-21T14:31:37.975Z,2.43
2019-05-21T14:34:40.225Z,3.00
2019-05-21T14:37:42.507Z,2.20
2019-05-21T14:40:44.755Z,2.30
2019-05-21T14:43:46.989Z,2.50
2019-05-21T14:46:49.399Z,2.07
2019-05-21T14:49:51.671Z,2.00
2019-05-21T14:52:53.997Z,2.50
2019-05-21T14:55:56.236Z,2.27
2019-05-21T14:58:58.509Z,2.07
2019-05-21T15:02:00.818Z,2.27
2019-05-21T15:05:03.159Z,1.97
2019-05-21T15:08:05.503Z,2.00
2019-05-21T15:11:07.779Z,2.17
2019-05-21T15:14:10.191Z,2.33
2019-05-21T15:17:12.473Z,2.30
2019-05-21T15:20:19.365Z,2.10
2019-05-21T15:23:21.670Z,1.90
2019-05-21T15:26:24.014Z,1.90
2019-05-21T15:29:26.285Z,1.77
2019-05-21T15:32:29.759Z,1.90
2019-05-21T15:35:30.931Z,1.77
2019-05-21T15:38:48.505Z,1.60
2019-05-21T15:41:35.478Z,1.80
2019-05-21T15:44:37.758Z,1.80
2019-05-21T15:47:40.018Z,1.70
2019-05-21T15:50:42.367Z,2.00
2019-05-21T15:53:44.613Z,1.87
2019-05-21T15:56:46.894Z,1.90
2019-05-21T15:59:49.160Z,1.73
2019-05-21T16:02:51.402Z,1.93
2019-05-21T16:05:53.664Z,1.90
2019-05-21T16:08:55.965Z,2.40
2019-05-21T16:11:58.292Z,1.90
2019-05-21T16:15:00.585Z,1.80
2019-05-21T16:18:02.840Z,1.80
2019-05-21T16:21:05.129Z,1.60
2019-05-21T16:24:07.478Z,2.20
2019-05-21T16:27:09.762Z,2.00
2019-05-21T16:30:12.092Z,1.70
2019-05-21T16:33:14.379Z,1.93
2019-05-21T16:36:16.686Z,1.30
2019-05-21T16:39:18.998Z,1.83
2019-05-21T16:42:21.382Z,1.87
2019-05-21T16:45:23.588Z,1.73
2019-05-21T16:48:25.908Z,1.73
2019-05-21T16:51:28.190Z,1.70
2019-05-21T16:54:30.468Z,1.90
2019-05-21T16:57:32.728Z,1.77
2019-05-21T17:00:35.004Z,1.70
2019-05-21T17:03:37.275Z,1.50
2019-05-21T17:06:39.524Z,1.50
2019-05-21T17:09:41.829Z,1.50
2019-05-21T17:12:44.118Z,1.70
2019-05-21T17:15:46.331Z,1.43
2019-05-21T17:18:48.566Z,1.50
2019-05-21T17:21:50.853Z,1.90
2019-05-21T17:24:53.289Z,1.60
2019-05-21T17:27:55.613Z,1.60
2019-05-21T17:30:57.865Z,1.60
2019-05-21T17:34:00.234Z,1.60
2019-05-21T17:37:02.705Z,1.63
2019-05-21T17:40:05.151Z,1.90
2019-05-21T17:44:36.983Z,1.90
2019-05-21T17:47:39.288Z,1.50
2019-05-21T17:50:41.559Z,1.40
2019-05-21T17:53:43.813Z,1.67
2019-05-21T17:56:46.220Z,1.60
2019-05-21T17:59:48.495Z,1.43
2019-05-21T18:02:50.748Z,1.67
2019-05-21T18:05:53.025Z,1.67
2019-05-21T18:08:55.436Z,1.70
2019-05-21T18:11:57.685Z,1.73
2019-05-21T18:14:59.993Z,1.60
2019-05-21T18:18:02.663Z,1.70
2019-05-21T18:21:05.156Z,1.80
2019-05-21T18:24:07.471Z,1.70
2019-05-21T18:27:09.705Z,1.70
2019-05-21T18:30:12.011Z,2.07
2019-05-21T18:33:14.245Z,1.93
2019-05-21T18:36:16.601Z,1.90
2019-05-21T18:39:19.020Z,2.37
2019-05-21T18:42:22.682Z,2.67
2019-05-21T18:45:23.820Z,2.77
2019-05-21T18:48:26.248Z,2.80
2019-05-21T18:51:28.527Z,2.50
2019-05-21T18:54:30.862Z,2.80
2019-05-21T18:57:33.184Z,2.70
2019-05-21T19:00:35.512Z,2.50
2019-05-21T19:03:37.767Z,2.50
2019-05-21T19:06:39.984Z,2.70
2019-05-21T19:09:42.250Z,2.80
2019-05-21T19:12:44.588Z,2.57
2019-05-21T19:15:46.897Z,2.83
2019-05-21T19:18:49.156Z,2.60
2019-05-21T19:21:51.403Z,3.03
2019-05-21T19:24:53.678Z,3.07
2019-05-21T19:27:55.915Z,2.70
2019-05-21T19:30:58.232Z,2.50
2019-05-21T19:34:00.495Z,2.60
2019-05-21T19:37:02.795Z,2.50
2019-05-21T19:40:05.403Z,2.60
2019-05-21T19:43:07.766Z,2.50
2019-05-21T19:46:10.010Z,2.40
2019-05-21T19:49:12.354Z,2.63
2019-05-21T19:52:14.645Z,2.77
2019-05-21T19:55:16.907Z,2.80
2019-05-21T19:58:19.152Z,2.80
2019-05-21T20:01:21.503Z,3.20
2019-05-21T20:04:23.802Z,3.33
2019-05-21T20:07:26.219Z,3.93
2019-05-21T20:10:30.558Z,3.80
2019-05-21T20:13:33.124Z,4.00
2019-05-21T20:16:35.593Z,4.67
2019-05-21T20:19:37.843Z,3.77
2019-05-21T20:22:40.198Z,4.00
2019-05-21T20:25:55.299Z,4.13
2019-05-21T20:28:44.811Z,4.87
2019-05-21T20:31:47.121Z,4.50
2019-05-21T20:34:51.099Z,4.87
2019-05-21T20:37:51.840Z,4.57
2019-05-21T20:40:54.118Z,4.67
2019-05-21T20:43:58.903Z,4.10
2019-05-21T20:46:58.769Z,5.13
2019-05-21T20:50:01.077Z,4.80
2019-05-21T20:53:03.442Z,5.40
2019-05-21T20:56:06.340Z,4.53
2019-05-21T20:59:08.604Z,4.33
2019-05-21T21:02:10.991Z,4.50
2019-05-21T21:05:13.298Z,4.27
2019-05-21T21:08:15.676Z,4.33
2019-05-21T21:11:18.010Z,5.03
2019-05-21T21:14:20.324Z,4.17
2019-05-21T21:17:22.648Z,3.70
2019-05-21T21:20:24.974Z,3.70
2019-05-21T21:23:27.336Z,3.67
2019-05-21T21:26:29.619Z,3.47
2019-05-21T21:29:31.840Z,3.23
2019-05-21T21:32:34.344Z,3.27
2019-05-21T21:35:36.641Z,3.37
2019-05-21T21:38:39.033Z,3.10
2019-05-21T21:41:41.269Z,3.20
2019-05-21T21:44:43.603Z,3.00
2019-05-21T21:47:45.852Z,2.97
2019-05-21T21:50:48.183Z,2.80
2019-05-21T21:53:50.419Z,2.70
2019-05-21T21:56:52.665Z,2.73
2019-05-21T21:59:55.019Z,2.17
2019-05-21T22:02:57.440Z,2.87
2019-05-21T22:05:59.759Z,3.00
2019-05-21T22:09:02.233Z,2.80
2019-05-21T22:12:05.388Z,2.90
2019-05-21T22:15:07.766Z,2.70
2019-05-21T22:18:10.083Z,2.70
2019-05-21T22:21:12.321Z,3.00
2019-05-21T22:24:14.669Z,2.90
2019-05-21T22:27:16.908Z,3.20
2019-05-21T22:30:19.237Z,2.90
2019-05-21T22:33:21.538Z,3.07
2019-05-21T22:36:23.846Z,2.57
2019-05-21T22:39:28.111Z,2.70
2019-05-21T22:42:30.406Z,2.93
2019-05-21T22:45:32.657Z,3.50
2019-05-21T22:48:34.927Z,2.83
2019-05-21T22:51:37.176Z,3.07
2019-05-21T22:54:39.460Z,2.77
2019-05-21T22:57:41.720Z,2.60
2019-05-21T23:00:43.987Z,2.67
2019-05-21T23:03:46.340Z,3.00
2019-05-21T23:06:48.742Z,2.77
2019-05-21T23:09:51.048Z,2.60
2019-05-21T23:12:53.378Z,3.20
2019-05-21T23:15:55.671Z,3.20
2019-05-21T23:18:57.959Z,3.30
2019-05-21T23:22:00.304Z,3.50
2019-05-21T23:25:02.687Z,3.10
2019-05-21T23:28:05.609Z,3.43
2019-05-21T23:31:07.909Z,2.80
2019-05-21T23:34:10.182Z,2.53
2019-05-21T23:37:18.065Z,2.80
2019-05-21T23:40:20.460Z,3.13
2019-05-21T23:43:22.831Z,2.77
2019-05-21T23:46:25.278Z,3.07
2019-05-21T23:49:27.546Z,3.60
2019-05-21T23:52:29.829Z,3.17
2019-05-21T23:55:32.103Z,2.93
2019-05-21T23:58:34.384Z,3.10
